sensor_id;sensor_type;location;lat;lon;timestamp;temperature;humidity
13472;DHT22;6808;49.444;11.034;2023-03-11T00:00:42;2.90;94.10
13472;DHT22;6808;49.444;11.034;2023-03-11T00:03:11;2.90;93.90
13472;DHT22;6808;49.444;11.034;2023-03-11T00:05:39;2.90;93.90
13472;DHT22;6808;49.444;11.034;2023-03-11T00:08:07;2.90;93.90
13472;DHT22;6808;49.444;11.034;2023-03-11T00:10:38;2.90;93.80
13472;DHT22;6808;49.444;11.034;2023-03-11T00:13:05;2.80;93.80
13472;DHT22;6808;49.444;11.034;2023-03-11T00:15:32;2.80;94.00
13472;DHT22;6808;49.444;11.034;2023-03-11T00:17:58;2.90;94.20
13472;DHT22;6808;49.444;11.034;2023-03-11T00:20:28;2.80;93.90
13472;DHT22;6808;49.444;11.034;2023-03-11T00:22:54;2.70;93.90
13472;DHT22;6808;49.444;11.034;2023-03-11T00:25:22;2.70;93.80
13472;DHT22;6808;49.444;11.034;2023-03-11T00:27:48;2.70;93.90
13472;DHT22;6808;49.444;11.034;2023-03-11T00:30:18;2.70;93.80
13472;DHT22;6808;49.444;11.034;2023-03-11T00:32:47;2.70;93.90
13472;DHT22;6808;49.444;11.034;2023-03-11T00:35:16;2.60;93.50
13472;DHT22;6808;49.444;11.034;2023-03-11T00:37:43;2.60;93.50
13472;DHT22;6808;49.444;11.034;2023-03-11T00:40:15;2.60;93.80
13472;DHT22;6808;49.444;11.034;2023-03-11T00:42:41;2.60;94.10
13472;DHT22;6808;49.444;11.034;2023-03-11T00:45:07;2.70;94.30
13472;DHT22;6808;49.444;11.034;2023-03-11T00:47:35;2.70;94.80
13472;DHT22;6808;49.444;11.034;2023-03-11T00:50:01;2.60;94.50
13472;DHT22;6808;49.444;11.034;2023-03-11T00:52:26;2.60;94.40
13472;DHT22;6808;49.444;11.034;2023-03-11T00:54:53;2.60;94.50
13472;DHT22;6808;49.444;11.034;2023-03-11T00:57:19;2.60;94.50
13472;DHT22;6808;49.444;11.034;2023-03-11T00:59:45;2.50;94.20
13472;DHT22;6808;49.444;11.034;2023-03-11T01:02:10;2.50;94.70
13472;DHT22;6808;49.444;11.034;2023-03-11T01:04:36;2.50;94.80
13472;DHT22;6808;49.444;11.034;2023-03-11T01:07:01;2.50;94.50
13472;DHT22;6808;49.444;11.034;2023-03-11T01:09:27;2.50;94.80
13472;DHT22;6808;49.444;11.034;2023-03-11T01:11:53;2.40;95.10
13472;DHT22;6808;49.444;11.034;2023-03-11T01:14:19;2.50;95.30
13472;DHT22;6808;49.444;11.034;2023-03-11T01:16:45;2.40;95.10
13472;DHT22;6808;49.444;11.034;2023-03-11T01:19:11;2.40;94.90
13472;DHT22;6808;49.444;11.034;2023-03-11T01:21:37;2.30;95.20
13472;DHT22;6808;49.444;11.034;2023-03-11T01:24:02;2.30;95.30
13472;DHT22;6808;49.444;11.034;2023-03-11T01:26:28;2.30;95.70
13472;DHT22;6808;49.444;11.034;2023-03-11T01:28:53;2.30;95.70
13472;DHT22;6808;49.444;11.034;2023-03-11T01:31:19;2.20;95.90
13472;DHT22;6808;49.444;11.034;2023-03-11T01:33:45;2.70;96.30
13472;DHT22;6808;49.444;11.034;2023-03-11T01:36:10;2.20;95.80
13472;DHT22;6808;49.444;11.034;2023-03-11T01:38:36;2.10;95.90
13472;DHT22;6808;49.444;11.034;2023-03-11T01:41:01;2.20;96.20
13472;DHT22;6808;49.444;11.034;2023-03-11T01:46:16;2.10;96.30
13472;DHT22;6808;49.444;11.034;2023-03-11T01:48:53;2.00;96.30
13472;DHT22;6808;49.444;11.034;2023-03-11T01:51:42;2.00;96.50
13472;DHT22;6808;49.444;11.034;2023-03-11T01:54:30;2.10;96.90
13472;DHT22;6808;49.444;11.034;2023-03-11T01:56:57;2.10;97.00
13472;DHT22;6808;49.444;11.034;2023-03-11T01:59:28;2.10;97.40
13472;DHT22;6808;49.444;11.034;2023-03-11T02:02:01;2.10;97.50
13472;DHT22;6808;49.444;11.034;2023-03-11T02:04:28;2.10;97.60
13472;DHT22;6808;49.444;11.034;2023-03-11T02:06:55;2.00;97.70
13472;DHT22;6808;49.444;11.034;2023-03-11T02:09:21;2.00;98.00
13472;DHT22;6808;49.444;11.034;2023-03-11T02:11:49;2.00;98.20
13472;DHT22;6808;49.444;11.034;2023-03-11T02:14:15;2.00;98.30
13472;DHT22;6808;49.444;11.034;2023-03-11T02:16:41;2.00;98.50
13472;DHT22;6808;49.444;11.034;2023-03-11T02:21:41;1.90;98.50
13472;DHT22;6808;49.444;11.034;2023-03-11T02:24:18;1.90;98.60
13472;DHT22;6808;49.444;11.034;2023-03-11T02:27:00;1.80;98.80
13472;DHT22;6808;49.444;11.034;2023-03-11T02:29:28;1.90;99.20
13472;DHT22;6808;49.444;11.034;2023-03-11T02:31:58;1.80;98.90
13472;DHT22;6808;49.444;11.034;2023-03-11T02:34:29;1.80;99.00
13472;DHT22;6808;49.444;11.034;2023-03-11T02:36:55;1.80;99.40
13472;DHT22;6808;49.444;11.034;2023-03-11T02:39:34;1.80;99.50
13472;DHT22;6808;49.444;11.034;2023-03-11T02:42:11;1.80;99.40
13472;DHT22;6808;49.444;11.034;2023-03-11T02:44:38;1.80;99.40
13472;DHT22;6808;49.444;11.034;2023-03-11T02:47:06;1.80;99.40
13472;DHT22;6808;49.444;11.034;2023-03-11T02:49:32;1.80;99.10
13472;DHT22;6808;49.444;11.034;2023-03-11T02:51:59;1.80;99.20
13472;DHT22;6808;49.444;11.034;2023-03-11T02:54:25;1.80;99.00
13472;DHT22;6808;49.444;11.034;2023-03-11T02:56:50;1.70;98.80
13472;DHT22;6808;49.444;11.034;2023-03-11T02:59:16;1.70;98.90
13472;DHT22;6808;49.444;11.034;2023-03-11T03:01:42;1.70;98.80
13472;DHT22;6808;49.444;11.034;2023-03-11T03:04:07;1.70;98.30
13472;DHT22;6808;49.444;11.034;2023-03-11T03:06:33;1.70;98.20
13472;DHT22;6808;49.444;11.034;2023-03-11T03:08:58;1.60;98.10
13472;DHT22;6808;49.444;11.034;2023-03-11T03:11:24;1.60;98.00
13472;DHT22;6808;49.444;11.034;2023-03-11T03:13:50;1.60;97.80
13472;DHT22;6808;49.444;11.034;2023-03-11T03:16:15;1.60;98.00
13472;DHT22;6808;49.444;11.034;2023-03-11T03:18:41;1.60;98.00
13472;DHT22;6808;49.444;11.034;2023-03-11T03:21:06;1.50;98.10
13472;DHT22;6808;49.444;11.034;2023-03-11T03:23:32;1.50;97.90
13472;DHT22;6808;49.444;11.034;2023-03-11T03:26:00;1.50;98.00
13472;DHT22;6808;49.444;11.034;2023-03-11T03:28:26;1.50;98.00
13472;DHT22;6808;49.444;11.034;2023-03-11T03:30:52;1.40;97.70
13472;DHT22;6808;49.444;11.034;2023-03-11T03:33:19;1.50;97.60
13472;DHT22;6808;49.444;11.034;2023-03-11T03:35:44;1.50;97.70
13472;DHT22;6808;49.444;11.034;2023-03-11T03:38:10;1.50;97.90
13472;DHT22;6808;49.444;11.034;2023-03-11T03:40:36;1.50;98.00
13472;DHT22;6808;49.444;11.034;2023-03-11T03:43:03;1.50;97.90
13472;DHT22;6808;49.444;11.034;2023-03-11T03:45:28;1.50;97.90
13472;DHT22;6808;49.444;11.034;2023-03-11T03:47:54;1.40;97.80
13472;DHT22;6808;49.444;11.034;2023-03-11T03:50:20;1.40;97.60
13472;DHT22;6808;49.444;11.034;2023-03-11T03:52:46;1.40;97.60
13472;DHT22;6808;49.444;11.034;2023-03-11T03:55:12;1.40;97.50
13472;DHT22;6808;49.444;11.034;2023-03-11T03:57:38;1.40;97.30
13472;DHT22;6808;49.444;11.034;2023-03-11T04:00:04;1.40;97.30
13472;DHT22;6808;49.444;11.034;2023-03-11T04:02:33;1.30;97.20
13472;DHT22;6808;49.444;11.034;2023-03-11T04:04:59;1.40;97.30
13472;DHT22;6808;49.444;11.034;2023-03-11T04:07:24;1.40;97.50
13472;DHT22;6808;49.444;11.034;2023-03-11T04:09:50;1.40;97.40
13472;DHT22;6808;49.444;11.034;2023-03-11T04:12:16;1.40;97.20
13472;DHT22;6808;49.444;11.034;2023-03-11T04:14:42;1.40;97.20
13472;DHT22;6808;49.444;11.034;2023-03-11T04:17:10;1.40;97.30
13472;DHT22;6808;49.444;11.034;2023-03-11T04:19:35;1.40;96.80
13472;DHT22;6808;49.444;11.034;2023-03-11T04:22:01;1.40;97.00
13472;DHT22;6808;49.444;11.034;2023-03-11T04:24:26;1.40;97.30
13472;DHT22;6808;49.444;11.034;2023-03-11T04:26:52;1.40;97.20
13472;DHT22;6808;49.444;11.034;2023-03-11T04:29:18;1.40;97.10
13472;DHT22;6808;49.444;11.034;2023-03-11T04:31:43;1.40;97.10
13472;DHT22;6808;49.444;11.034;2023-03-11T04:34:09;1.40;97.20
13472;DHT22;6808;49.444;11.034;2023-03-11T04:36:35;1.40;97.20
13472;DHT22;6808;49.444;11.034;2023-03-11T04:39:00;1.30;97.20
13472;DHT22;6808;49.444;11.034;2023-03-11T04:41:26;1.30;97.30
13472;DHT22;6808;49.444;11.034;2023-03-11T04:43:51;1.30;97.10
13472;DHT22;6808;49.444;11.034;2023-03-11T04:46:17;1.30;97.30
13472;DHT22;6808;49.444;11.034;2023-03-11T04:48:42;1.30;97.40
13472;DHT22;6808;49.444;11.034;2023-03-11T04:51:08;1.30;97.50
13472;DHT22;6808;49.444;11.034;2023-03-11T04:53:34;1.20;97.40
13472;DHT22;6808;49.444;11.034;2023-03-11T04:55:59;1.20;97.30
13472;DHT22;6808;49.444;11.034;2023-03-11T04:58:25;1.20;97.60
13472;DHT22;6808;49.444;11.034;2023-03-11T05:00:51;1.20;97.60
13472;DHT22;6808;49.444;11.034;2023-03-11T05:03:17;1.20;97.80
13472;DHT22;6808;49.444;11.034;2023-03-11T05:05:43;1.20;98.00
13472;DHT22;6808;49.444;11.034;2023-03-11T05:08:09;1.20;98.10
13472;DHT22;6808;49.444;11.034;2023-03-11T05:10:34;1.20;98.00
13472;DHT22;6808;49.444;11.034;2023-03-11T05:13:01;1.20;98.30
13472;DHT22;6808;49.444;11.034;2023-03-11T05:15:27;1.20;98.20
13472;DHT22;6808;49.444;11.034;2023-03-11T05:17:55;1.20;98.30
13472;DHT22;6808;49.444;11.034;2023-03-11T05:20:21;1.20;98.30
13472;DHT22;6808;49.444;11.034;2023-03-11T05:22:47;1.10;98.10
13472;DHT22;6808;49.444;11.034;2023-03-11T05:25:12;1.10;98.30
13472;DHT22;6808;49.444;11.034;2023-03-11T05:27:38;1.10;98.40
13472;DHT22;6808;49.444;11.034;2023-03-11T05:30:04;1.10;98.40
13472;DHT22;6808;49.444;11.034;2023-03-11T05:32:30;1.00;98.30
13472;DHT22;6808;49.444;11.034;2023-03-11T05:34:56;1.00;98.50
13472;DHT22;6808;49.444;11.034;2023-03-11T05:37:22;1.10;98.60
13472;DHT22;6808;49.444;11.034;2023-03-11T05:39:47;1.10;98.80
13472;DHT22;6808;49.444;11.034;2023-03-11T05:42:13;1.10;98.60
13472;DHT22;6808;49.444;11.034;2023-03-11T05:44:39;1.10;98.50
13472;DHT22;6808;49.444;11.034;2023-03-11T05:47:05;1.10;98.60
13472;DHT22;6808;49.444;11.034;2023-03-11T05:49:31;1.10;98.70
13472;DHT22;6808;49.444;11.034;2023-03-11T05:51:57;1.10;98.60
13472;DHT22;6808;49.444;11.034;2023-03-11T05:54:22;1.10;98.60
13472;DHT22;6808;49.444;11.034;2023-03-11T05:56:48;1.10;98.70
13472;DHT22;6808;49.444;11.034;2023-03-11T05:59:14;1.10;98.50
13472;DHT22;6808;49.444;11.034;2023-03-11T06:01:40;1.20;98.60
13472;DHT22;6808;49.444;11.034;2023-03-11T06:04:08;1.20;98.50
13472;DHT22;6808;49.444;11.034;2023-03-11T06:06:34;1.20;98.50
13472;DHT22;6808;49.444;11.034;2023-03-11T06:08:59;1.20;98.60
13472;DHT22;6808;49.444;11.034;2023-03-11T06:11:26;1.10;98.30
13472;DHT22;6808;49.444;11.034;2023-03-11T06:13:55;1.10;98.40
13472;DHT22;6808;49.444;11.034;2023-03-11T06:16:22;1.20;98.60
13472;DHT22;6808;49.444;11.034;2023-03-11T06:18:47;1.30;98.60
13472;DHT22;6808;49.444;11.034;2023-03-11T06:21:21;1.30;98.60
13472;DHT22;6808;49.444;11.034;2023-03-11T06:23:48;1.30;98.60
13472;DHT22;6808;49.444;11.034;2023-03-11T06:26:16;1.30;98.40
13472;DHT22;6808;49.444;11.034;2023-03-11T06:28:43;1.30;98.50
13472;DHT22;6808;49.444;11.034;2023-03-11T06:31:14;1.40;98.40
13472;DHT22;6808;49.444;11.034;2023-03-11T06:33:40;1.30;98.20
13472;DHT22;6808;49.444;11.034;2023-03-11T06:36:06;1.30;98.40
13472;DHT22;6808;49.444;11.034;2023-03-11T06:38:33;1.30;98.30
13472;DHT22;6808;49.444;11.034;2023-03-11T06:40:59;1.30;98.20
13472;DHT22;6808;49.444;11.034;2023-03-11T06:43:25;1.30;98.30
13472;DHT22;6808;49.444;11.034;2023-03-11T06:45:51;1.30;98.30
13472;DHT22;6808;49.444;11.034;2023-03-11T06:48:16;1.30;98.40
13472;DHT22;6808;49.444;11.034;2023-03-11T06:50:42;1.40;98.50
13472;DHT22;6808;49.444;11.034;2023-03-11T06:53:08;1.40;98.50
13472;DHT22;6808;49.444;11.034;2023-03-11T06:55:34;1.40;98.30
13472;DHT22;6808;49.444;11.034;2023-03-11T06:58:00;1.40;98.40
13472;DHT22;6808;49.444;11.034;2023-03-11T07:00:26;1.50;98.50
13472;DHT22;6808;49.444;11.034;2023-03-11T07:02:52;1.40;98.20
13472;DHT22;6808;49.444;11.034;2023-03-11T07:05:17;1.40;98.20
13472;DHT22;6808;49.444;11.034;2023-03-11T07:07:43;1.40;98.60
13472;DHT22;6808;49.444;11.034;2023-03-11T07:10:09;1.40;98.50
13472;DHT22;6808;49.444;11.034;2023-03-11T07:12:35;1.40;98.80
13472;DHT22;6808;49.444;11.034;2023-03-11T07:15:00;1.40;98.50
13472;DHT22;6808;49.444;11.034;2023-03-11T07:17:26;1.40;98.70
13472;DHT22;6808;49.444;11.034;2023-03-11T07:19:53;1.40;98.60
13472;DHT22;6808;49.444;11.034;2023-03-11T07:22:19;1.50;98.80
13472;DHT22;6808;49.444;11.034;2023-03-11T07:24:46;1.60;99.00
13472;DHT22;6808;49.444;11.034;2023-03-11T07:27:12;1.70;98.90
13472;DHT22;6808;49.444;11.034;2023-03-11T07:29:37;1.80;99.00
13472;DHT22;6808;49.444;11.034;2023-03-11T07:32:03;1.90;98.60
13472;DHT22;6808;49.444;11.034;2023-03-11T07:34:30;1.90;98.30
13472;DHT22;6808;49.444;11.034;2023-03-11T07:36:57;1.90;98.00
13472;DHT22;6808;49.444;11.034;2023-03-11T07:39:23;1.90;98.30
13472;DHT22;6808;49.444;11.034;2023-03-11T07:41:49;2.00;98.30
13472;DHT22;6808;49.444;11.034;2023-03-11T07:44:15;2.00;98.20
13472;DHT22;6808;49.444;11.034;2023-03-11T07:46:41;2.00;98.50
13472;DHT22;6808;49.444;11.034;2023-03-11T07:49:07;2.10;98.50
13472;DHT22;6808;49.444;11.034;2023-03-11T07:51:34;2.10;98.30
13472;DHT22;6808;49.444;11.034;2023-03-11T07:54:00;2.10;98.10
13472;DHT22;6808;49.444;11.034;2023-03-11T07:56:31;2.10;97.90
13472;DHT22;6808;49.444;11.034;2023-03-11T07:59:01;2.00;97.60
13472;DHT22;6808;49.444;11.034;2023-03-11T08:01:29;2.00;97.80
13472;DHT22;6808;49.444;11.034;2023-03-11T08:04:02;2.10;98.00
13472;DHT22;6808;49.444;11.034;2023-03-11T08:06:30;2.80;98.20
13472;DHT22;6808;49.444;11.034;2023-03-11T08:08:59;2.10;98.20
13472;DHT22;6808;49.444;11.034;2023-03-11T08:11:26;2.10;98.10
13472;DHT22;6808;49.444;11.034;2023-03-11T08:13:53;2.20;98.10
13472;DHT22;6808;49.444;11.034;2023-03-11T08:16:20;2.20;97.70
13472;DHT22;6808;49.444;11.034;2023-03-11T08:18:47;2.20;97.70
13472;DHT22;6808;49.444;11.034;2023-03-11T08:21:17;2.30;97.80
13472;DHT22;6808;49.444;11.034;2023-03-11T08:23:43;2.30;97.80
13472;DHT22;6808;49.444;11.034;2023-03-11T08:26:12;2.30;97.40
13472;DHT22;6808;49.444;11.034;2023-03-11T08:28:38;2.40;97.70
13472;DHT22;6808;49.444;11.034;2023-03-11T08:31:19;2.50;97.80
13472;DHT22;6808;49.444;11.034;2023-03-11T08:33:47;2.50;97.80
13472;DHT22;6808;49.444;11.034;2023-03-11T08:36:14;2.50;97.00
13472;DHT22;6808;49.444;11.034;2023-03-11T08:38:40;2.50;97.10
13472;DHT22;6808;49.444;11.034;2023-03-11T08:41:07;2.50;96.80
13472;DHT22;6808;49.444;11.034;2023-03-11T08:43:33;2.50;96.10
13472;DHT22;6808;49.444;11.034;2023-03-11T08:46:00;2.50;95.20
13472;DHT22;6808;49.444;11.034;2023-03-11T08:48:26;2.50;95.40
13472;DHT22;6808;49.444;11.034;2023-03-11T08:50:52;2.60;95.50
13472;DHT22;6808;49.444;11.034;2023-03-11T08:53:18;2.70;95.40
13472;DHT22;6808;49.444;11.034;2023-03-11T08:55:43;2.80;94.50
13472;DHT22;6808;49.444;11.034;2023-03-11T08:58:09;2.80;93.80
13472;DHT22;6808;49.444;11.034;2023-03-11T09:00:34;2.90;94.50
13472;DHT22;6808;49.444;11.034;2023-03-11T09:03:00;2.90;94.10
13472;DHT22;6808;49.444;11.034;2023-03-11T09:05:26;3.00;94.50
13472;DHT22;6808;49.444;11.034;2023-03-11T09:07:52;3.10;94.00
13472;DHT22;6808;49.444;11.034;2023-03-11T09:10:17;3.10;94.00
13472;DHT22;6808;49.444;11.034;2023-03-11T09:12:43;3.20;94.30
13472;DHT22;6808;49.444;11.034;2023-03-11T09:15:09;3.30;94.40
13472;DHT22;6808;49.444;11.034;2023-03-11T09:17:35;3.40;94.20
13472;DHT22;6808;49.444;11.034;2023-03-11T09:20:01;3.30;92.60
13472;DHT22;6808;49.444;11.034;2023-03-11T09:22:26;3.20;92.20
13472;DHT22;6808;49.444;11.034;2023-03-11T09:24:52;3.20;92.00
13472;DHT22;6808;49.444;11.034;2023-03-11T09:27:18;3.30;92.90
13472;DHT22;6808;49.444;11.034;2023-03-11T09:29:43;3.40;92.00
13472;DHT22;6808;49.444;11.034;2023-03-11T09:32:12;3.40;91.10
13472;DHT22;6808;49.444;11.034;2023-03-11T09:34:38;3.30;91.70
13472;DHT22;6808;49.444;11.034;2023-03-11T09:37:04;3.30;92.60
13472;DHT22;6808;49.444;11.034;2023-03-11T09:39:29;3.20;92.50
13472;DHT22;6808;49.444;11.034;2023-03-11T09:41:58;3.20;93.20
13472;DHT22;6808;49.444;11.034;2023-03-11T09:44:42;3.20;93.20
13472;DHT22;6808;49.444;11.034;2023-03-11T09:55:46;3.30;92.10
13472;DHT22;6808;49.444;11.034;2023-03-11T09:58:20;3.30;91.60
13472;DHT22;6808;49.444;11.034;2023-03-11T10:00:48;3.30;91.90
13472;DHT22;6808;49.444;11.034;2023-03-11T10:05:57;3.20;92.70
13472;DHT22;6808;49.444;11.034;2023-03-11T10:08:32;3.00;95.20
13472;DHT22;6808;49.444;11.034;2023-03-11T10:16:39;2.50;99.90
13472;DHT22;6808;49.444;11.034;2023-03-11T10:19:14;2.60;99.90
13472;DHT22;6808;49.444;11.034;2023-03-11T10:27:29;2.90;99.90
13472;DHT22;6808;49.444;11.034;2023-03-11T10:30:28;3.00;99.90
13472;DHT22;6808;49.444;11.034;2023-03-11T10:33:12;3.10;99.60
13472;DHT22;6808;49.444;11.034;2023-03-11T10:35:44;3.20;99.70
13472;DHT22;6808;49.444;11.034;2023-03-11T10:38:41;3.40;99.60
13472;DHT22;6808;49.444;11.034;2023-03-11T10:44:14;3.30;94.80
13472;DHT22;6808;49.444;11.034;2023-03-11T10:46:41;3.30;94.60
13472;DHT22;6808;49.444;11.034;2023-03-11T10:49:15;3.30;94.10
13472;DHT22;6808;49.444;11.034;2023-03-11T10:51:44;3.40;95.40
13472;DHT22;6808;49.444;11.034;2023-03-11T10:56:55;3.40;93.80
13472;DHT22;6808;49.444;11.034;2023-03-11T10:59:22;3.40;93.00
13472;DHT22;6808;49.444;11.034;2023-03-11T11:01:56;3.50;94.90
13472;DHT22;6808;49.444;11.034;2023-03-11T11:04:41;3.60;95.60
13472;DHT22;6808;49.444;11.034;2023-03-11T11:07:20;3.60;94.40
13472;DHT22;6808;49.444;11.034;2023-03-11T11:09:47;3.70;93.90
13472;DHT22;6808;49.444;11.034;2023-03-11T11:12:15;3.70;94.30
13472;DHT22;6808;49.444;11.034;2023-03-11T11:14:50;3.80;93.90
13472;DHT22;6808;49.444;11.034;2023-03-11T11:17:33;3.90;92.80
13472;DHT22;6808;49.444;11.034;2023-03-11T11:20:00;4.20;91.60
13472;DHT22;6808;49.444;11.034;2023-03-11T11:22:37;4.40;91.80
13472;DHT22;6808;49.444;11.034;2023-03-11T11:25:28;4.60;91.50
13472;DHT22;6808;49.444;11.034;2023-03-11T11:27:59;4.50;90.50
13472;DHT22;6808;49.444;11.034;2023-03-11T11:30:26;4.30;90.50
13472;DHT22;6808;49.444;11.034;2023-03-11T11:32:52;4.20;90.60
13472;DHT22;6808;49.444;11.034;2023-03-11T11:35:21;4.00;90.60
13472;DHT22;6808;49.444;11.034;2023-03-11T11:37:52;4.00;91.70
13472;DHT22;6808;49.444;11.034;2023-03-11T11:40:31;3.90;90.90
13472;DHT22;6808;49.444;11.034;2023-03-11T11:43:05;3.80;91.40
13472;DHT22;6808;49.444;11.034;2023-03-11T11:45:38;3.90;92.70
13472;DHT22;6808;49.444;11.034;2023-03-11T11:48:28;4.00;92.20
13472;DHT22;6808;49.444;11.034;2023-03-11T11:50:59;4.10;91.60
13472;DHT22;6808;49.444;11.034;2023-03-11T11:53:40;4.10;90.50
13472;DHT22;6808;49.444;11.034;2023-03-11T11:56:08;4.10;89.70
13472;DHT22;6808;49.444;11.034;2023-03-11T11:58:34;4.20;90.30
13472;DHT22;6808;49.444;11.034;2023-03-11T12:01:12;4.20;90.00
13472;DHT22;6808;49.444;11.034;2023-03-11T12:03:43;4.30;88.00
13472;DHT22;6808;49.444;11.034;2023-03-11T12:11:48;4.40;87.60
13472;DHT22;6808;49.444;11.034;2023-03-11T12:14:24;4.40;87.90
13472;DHT22;6808;49.444;11.034;2023-03-11T12:19:48;4.50;85.60
13472;DHT22;6808;49.444;11.034;2023-03-11T12:22:32;4.60;88.70
13472;DHT22;6808;49.444;11.034;2023-03-11T12:30:45;4.40;91.70
13472;DHT22;6808;49.444;11.034;2023-03-11T12:33:42;4.30;91.80
13472;DHT22;6808;49.444;11.034;2023-03-11T12:38:56;4.10;91.00
13472;DHT22;6808;49.444;11.034;2023-03-11T12:41:39;4.10;91.10
13472;DHT22;6808;49.444;11.034;2023-03-11T12:44:24;4.00;91.30
13472;DHT22;6808;49.444;11.034;2023-03-11T12:49:23;3.70;90.40
13472;DHT22;6808;49.444;11.034;2023-03-11T12:54:35;3.80;91.40
13472;DHT22;6808;49.444;11.034;2023-03-11T12:57:22;3.70;90.90
13472;DHT22;6808;49.444;11.034;2023-03-11T13:08:15;3.80;91.20
13472;DHT22;6808;49.444;11.034;2023-03-11T13:10:46;3.80;91.30
13472;DHT22;6808;49.444;11.034;2023-03-11T13:13:39;3.80;90.60
13472;DHT22;6808;49.444;11.034;2023-03-11T13:18:37;3.80;91.60
13472;DHT22;6808;49.444;11.034;2023-03-11T13:21:04;3.90;91.70
13472;DHT22;6808;49.444;11.034;2023-03-11T13:23:49;3.80;91.40
13472;DHT22;6808;49.444;11.034;2023-03-11T13:26:42;3.80;91.00
13472;DHT22;6808;49.444;11.034;2023-03-11T13:32:11;3.60;91.00
13472;DHT22;6808;49.444;11.034;2023-03-11T13:37:47;3.60;90.00
13472;DHT22;6808;49.444;11.034;2023-03-11T13:40:22;3.50;90.10
13472;DHT22;6808;49.444;11.034;2023-03-11T13:42:53;3.40;89.80
13472;DHT22;6808;49.444;11.034;2023-03-11T13:45:34;3.40;90.00
13472;DHT22;6808;49.444;11.034;2023-03-11T13:48:20;3.50;89.80
13472;DHT22;6808;49.444;11.034;2023-03-11T13:51:04;3.50;89.60
13472;DHT22;6808;49.444;11.034;2023-03-11T13:53:38;3.60;89.50
13472;DHT22;6808;49.444;11.034;2023-03-11T13:56:05;3.50;87.20
13472;DHT22;6808;49.444;11.034;2023-03-11T13:58:40;3.60;88.70
13472;DHT22;6808;49.444;11.034;2023-03-11T14:01:14;3.60;88.70
13472;DHT22;6808;49.444;11.034;2023-03-11T14:03:44;3.50;85.50
13472;DHT22;6808;49.444;11.034;2023-03-11T14:06:13;3.50;86.30
13472;DHT22;6808;49.444;11.034;2023-03-11T14:08:40;3.60;85.90
13472;DHT22;6808;49.444;11.034;2023-03-11T14:13:43;3.50;85.20
13472;DHT22;6808;49.444;11.034;2023-03-11T14:16:13;3.50;85.10
13472;DHT22;6808;49.444;11.034;2023-03-11T14:18:44;3.50;85.70
13472;DHT22;6808;49.444;11.034;2023-03-11T14:21:15;3.50;87.40
13472;DHT22;6808;49.444;11.034;2023-03-11T14:23:44;3.50;87.80
13472;DHT22;6808;49.444;11.034;2023-03-11T14:26:18;3.50;88.40
13472;DHT22;6808;49.444;11.034;2023-03-11T14:28:52;3.60;88.10
13472;DHT22;6808;49.444;11.034;2023-03-11T14:31:22;3.60;88.40
13472;DHT22;6808;49.444;11.034;2023-03-11T14:33:57;3.70;88.90
13472;DHT22;6808;49.444;11.034;2023-03-11T14:36:37;3.70;88.00
13472;DHT22;6808;49.444;11.034;2023-03-11T14:39:03;3.80;89.40
13472;DHT22;6808;49.444;11.034;2023-03-11T14:41:29;3.90;90.10
13472;DHT22;6808;49.444;11.034;2023-03-11T14:43:55;4.10;90.10
13472;DHT22;6808;49.444;11.034;2023-03-11T14:46:27;4.00;89.00
13472;DHT22;6808;49.444;11.034;2023-03-11T14:48:55;4.10;89.40
13472;DHT22;6808;49.444;11.034;2023-03-11T14:51:26;4.10;87.30
13472;DHT22;6808;49.444;11.034;2023-03-11T14:54:22;4.10;88.50
13472;DHT22;6808;49.444;11.034;2023-03-11T14:57:21;4.10;88.10
13472;DHT22;6808;49.444;11.034;2023-03-11T14:59:50;4.20;88.00
13472;DHT22;6808;49.444;11.034;2023-03-11T15:05:02;4.20;85.50
13472;DHT22;6808;49.444;11.034;2023-03-11T15:07:30;4.10;86.20
13472;DHT22;6808;49.444;11.034;2023-03-11T15:09:56;4.20;86.90
13472;DHT22;6808;49.444;11.034;2023-03-11T15:12:39;4.10;87.10
13472;DHT22;6808;49.444;11.034;2023-03-11T15:15:25;4.10;87.40
13472;DHT22;6808;49.444;11.034;2023-03-11T15:17:59;4.00;87.20
13472;DHT22;6808;49.444;11.034;2023-03-11T15:20:35;4.00;86.70
13472;DHT22;6808;49.444;11.034;2023-03-11T15:23:03;4.00;87.70
13472;DHT22;6808;49.444;11.034;2023-03-11T15:25:36;3.90;87.40
13472;DHT22;6808;49.444;11.034;2023-03-11T15:28:26;3.90;87.40
13472;DHT22;6808;49.444;11.034;2023-03-11T15:33:40;3.80;87.70
13472;DHT22;6808;49.444;11.034;2023-03-11T15:36:29;3.80;87.70
13472;DHT22;6808;49.444;11.034;2023-03-11T15:44:59;3.70;88.70
13472;DHT22;6808;49.444;11.034;2023-03-11T15:47:26;3.60;90.10
13472;DHT22;6808;49.444;11.034;2023-03-11T15:49:52;3.70;88.80
13472;DHT22;6808;49.444;11.034;2023-03-11T15:52:19;3.70;90.00
13472;DHT22;6808;49.444;11.034;2023-03-11T15:54:45;3.70;90.20
13472;DHT22;6808;49.444;11.034;2023-03-11T15:57:25;3.70;90.80
13472;DHT22;6808;49.444;11.034;2023-03-11T15:59:53;3.70;90.50
13472;DHT22;6808;49.444;11.034;2023-03-11T16:02:27;3.70;90.60
13472;DHT22;6808;49.444;11.034;2023-03-11T16:04:55;3.70;90.50
13472;DHT22;6808;49.444;11.034;2023-03-11T16:07:20;3.70;90.40
13472;DHT22;6808;49.444;11.034;2023-03-11T16:09:46;3.60;90.10
13472;DHT22;6808;49.444;11.034;2023-03-11T16:12:22;3.60;90.20
13472;DHT22;6808;49.444;11.034;2023-03-11T16:14:49;3.60;90.30
13472;DHT22;6808;49.444;11.034;2023-03-11T16:17:15;3.50;90.30
13472;DHT22;6808;49.444;11.034;2023-03-11T16:19:44;3.50;90.50
13472;DHT22;6808;49.444;11.034;2023-03-11T16:22:16;3.50;90.00
13472;DHT22;6808;49.444;11.034;2023-03-11T16:24:42;3.50;90.40
13472;DHT22;6808;49.444;11.034;2023-03-11T16:27:12;3.50;89.20
13472;DHT22;6808;49.444;11.034;2023-03-11T16:29:39;3.50;90.10
13472;DHT22;6808;49.444;11.034;2023-03-11T16:32:05;3.50;90.00
13472;DHT22;6808;49.444;11.034;2023-03-11T16:34:31;3.50;90.10
13472;DHT22;6808;49.444;11.034;2023-03-11T16:36:56;3.50;90.00
13472;DHT22;6808;49.444;11.034;2023-03-11T16:39:22;3.50;89.30
13472;DHT22;6808;49.444;11.034;2023-03-11T16:41:48;3.50;90.00
13472;DHT22;6808;49.444;11.034;2023-03-11T16:44:14;3.40;90.40
13472;DHT22;6808;49.444;11.034;2023-03-11T16:46:40;3.40;90.00
13472;DHT22;6808;49.444;11.034;2023-03-11T16:49:05;3.40;90.50
13472;DHT22;6808;49.444;11.034;2023-03-11T16:51:32;3.40;90.80
13472;DHT22;6808;49.444;11.034;2023-03-11T16:54:00;3.40;90.70
13472;DHT22;6808;49.444;11.034;2023-03-11T16:56:25;3.40;90.60
13472;DHT22;6808;49.444;11.034;2023-03-11T16:58:51;3.40;90.70
13472;DHT22;6808;49.444;11.034;2023-03-11T17:01:16;3.40;90.50
13472;DHT22;6808;49.444;11.034;2023-03-11T17:03:44;3.40;90.20
13472;DHT22;6808;49.444;11.034;2023-03-11T17:06:13;3.40;90.50
13472;DHT22;6808;49.444;11.034;2023-03-11T17:08:38;3.40;90.50
13472;DHT22;6808;49.444;11.034;2023-03-11T17:11:04;3.40;90.50
13472;DHT22;6808;49.444;11.034;2023-03-11T17:13:30;3.40;89.80
13472;DHT22;6808;49.444;11.034;2023-03-11T17:15:59;3.30;90.00
13472;DHT22;6808;49.444;11.034;2023-03-11T17:18:25;3.30;90.60
13472;DHT22;6808;49.444;11.034;2023-03-11T17:20:51;3.30;90.70
13472;DHT22;6808;49.444;11.034;2023-03-11T17:23:17;3.30;91.50